WetterOnline ( https://www.wetteronline.de )

Wetter aktuell Wunsiedel

Aktuelles Wetter: Wunsiedel-Schönbrunn (622m)

6-stündlich | Neueste Meldungen
Ortszeit Temperatur Wetter
Mi, 28.09. 14:00 7.5° C bewölkt
Mi, 28.09. 8:00 5.0° C leichter Regen
Mi, 28.09. 2:00 5.7° C Sprühregen
Di, 27.09. 20:00 6.2° C bewölkt
Di, 27.09. 14:00 8.0° C leichter Regen
Di, 27.09. 8:00 7.6° C leichter Regen
Di, 27.09. 2:00 8.8° C leichter Regen
Mo, 26.09. 20:00 8.6° C bewölkt
Ortszeit Temperatur Wetter
Mi, 28.09. 17:30 7.9° C wolkig
Mi, 28.09. 17:20 7.9° C wolkig
Mi, 28.09. 17:10 8.1° C wolkig
Mi, 28.09. 17:00 8.0° C bewölkt
Mi, 28.09. 16:50 8.0° C bewölkt
Mi, 28.09. 16:40 8.1° C bedeckt
Mi, 28.09. 16:30 7.3° C Sprühregen
Mi, 28.09. 16:00 7.5° C Sprühregen
Mi, 28.09. 15:30 8.8° C bewölkt
Mi, 28.09. 15:00 8.4° C wolkig
Mi, 28.09. 14:30 7.4° C Sprühregen
Ortszeit Relative Feuchte Sichtweite
Mi, 28.09. 14:00 76% 45 km
Mi, 28.09. 8:00 94% 13 km
Mi, 28.09. 2:00 93% 55 km
Di, 27.09. 20:00 94% 50 km
Di, 27.09. 14:00 87% 23 km
Di, 27.09. 8:00 97% 7 km
Di, 27.09. 2:00 81% 25 km
Mo, 26.09. 20:00 84% 55 km
Ortszeit Relative Feuchte Sichtweite
Mi, 28.09. 17:30 77% 65 km
Mi, 28.09. 17:20 77% -
Mi, 28.09. 17:10 77% -
Mi, 28.09. 17:00 81% >70 km
Mi, 28.09. 16:50 81% -
Mi, 28.09. 16:40 81% -
Mi, 28.09. 16:30 84% 20 km
Mi, 28.09. 16:00 80% 13 km
Mi, 28.09. 15:30 72% 50 km
Mi, 28.09. 15:00 71% >70 km
Mi, 28.09. 14:30 81% 60 km
Ortszeit Niederschlagsmenge Niederschlagsart
Mi, 28.09. 14:00 2 l/m2 in 6 Std. Regen
Mi, 28.09. 8:00 4 l/m2 in 12 Std. Regen
Mi, 28.09. 2:00 1 l/m2 in 6 Std. Regen
Di, 27.09. 20:00 6 l/m2 in 12 Std. Regen
Di, 27.09. 14:00 3 l/m2 in 6 Std. Regen
Di, 27.09. 8:00 6 l/m2 in 12 Std. Regen
Di, 27.09. 2:00 0.1 l/m2 in 6 Std. Regen
Mo, 26.09. 20:00 0.1 l/m2 in 12 Std. Regen
Ortszeit Niederschlagsmenge Niederschlagsart
Mi, 28.09. 17:30 0.0 l/m2 in 1 Std. -
Mi, 28.09. 17:20 keine Meldung -
Mi, 28.09. 17:10 keine Meldung -
Mi, 28.09. 17:00 0.1 l/m2 in 1 Std. Regen
Mi, 28.09. 16:50 keine Meldung -
Mi, 28.09. 16:40 keine Meldung -
Mi, 28.09. 16:30 <0.05 l/m2 in 1 Std. -
Mi, 28.09. 16:00 <0.05 l/m2 in 1 Std. Regen
Mi, 28.09. 15:30 0.0 l/m2 in 1 Std. -
Mi, 28.09. 15:00 <0.05 l/m2 in 1 Std. Regen
Mi, 28.09. 14:30 <0.05 l/m2 in 1 Std. -
Ortszeit Stärke Spitze Richtung
km/h Bft. km/h Grad Sektor
Mi, 28.09. 14:00 20 4 35 270° W
Mi, 28.09. 8:00 4 1 29 130° SO
Mi, 28.09. 2:00 13 3 31 240° SW
Di, 27.09. 20:00 7 2 43 240° SW
Di, 27.09. 14:00 14 3 43 250° W
Di, 27.09. 8:00 17 3 33 220° SW
Di, 27.09. 2:00 20 4 33 200° S
Mo, 26.09. 20:00 4 1 32 190° S
Ortszeit Stärke Spitze Richtung
km/h Bft. km/h Grad Sektor
Mi, 28.09. 17:30 11 2 22 240° SW
Mi, 28.09. 17:20 11 2 - 240° SW
Mi, 28.09. 17:10 11 2 - 250° W
Mi, 28.09. 17:00 15 3 35 230° SW
Mi, 28.09. 16:50 15 3 - 230° SW
Mi, 28.09. 16:40 13 3 - 240° SW
Mi, 28.09. 16:30 17 3 35 280° W
Mi, 28.09. 16:00 28 4 41 290° W
Mi, 28.09. 15:30 17 3 31 250° W
Mi, 28.09. 15:00 17 3 30 260° W
Mi, 28.09. 14:30 18 3 29 250° W
Ortszeit Untergrenze Bedeckung Gattung
total tief tief mittel hoch
Mi, 28.09. 14:00 540 m 7/8 7/8 - - -
Mi, 28.09. 8:00 210 m 7/8 7/8 - - -
Mi, 28.09. 2:00 270 m 7/8 7/8 - - -
Di, 27.09. 20:00 300 m 7/8 7/8 - - -
Di, 27.09. 14:00 480 m 8/8 8/8 - - -
Di, 27.09. 8:00 210 m 8/8 8/8 - - -
Di, 27.09. 2:00 1110 m 8/8 8/8 - - -
Mo, 26.09. 20:00 1800 m 8/8 6/8 - - -
Ortszeit Bedeckungsgrad in Achtel und Wolkenuntergrenze
Mi, 28.09. 17:30 2(660m) 5(1410m) 6(7800m)
Mi, 28.09. 17:20 2(660m) 5(1410m) 6(7800m)
Mi, 28.09. 17:10 5
Mi, 28.09. 17:00 1(570m) 6(1410m) 7(7800m)
Mi, 28.09. 16:50 1(570m) 6(1410m) 7(7800m)
Mi, 28.09. 16:40 8
Mi, 28.09. 16:30 3(660m) 7(930m) 8(1470m)
Mi, 28.09. 16:00 1(690m) 7(1170m) 8(1410m)
Mi, 28.09. 15:30 4(720m) 7(1350m)
Mi, 28.09. 15:00 1(540m) 5(750m)
Mi, 28.09. 14:30 3(600m) 6(1110m) 7(1380m)
Ortszeit Luftdruck NN (hPa) Tendenz (hPa in 3 Std.)
Mi, 28.09. 14:00 998 + 1,7
Mi, 28.09. 8:00 996 - 2,3
Mi, 28.09. 2:00 1001 - 0,5
Di, 27.09. 20:00 1001 + 0,5
Di, 27.09. 14:00 999 + 0,9
Di, 27.09. 8:00 996 - 0,5
Di, 27.09. 2:00 999 - 2,9
Mo, 26.09. 20:00 1004 - 1,0
Ortszeit Luftdruck NN (hPa) Tendenz (hPa in 3 Std.)
Mi, 28.09. 17:30 999 + 0,9
Mi, 28.09. 17:20 999 keine Meldung
Mi, 28.09. 17:10 999 keine Meldung
Mi, 28.09. 17:00 999 + 0,9
Mi, 28.09. 16:50 999 keine Meldung
Mi, 28.09. 16:40 999 keine Meldung
Mi, 28.09. 16:30 999 + 1,0
Mi, 28.09. 16:00 999 + 0,8
Mi, 28.09. 15:30 998 + 1,0
Mi, 28.09. 15:00 998 + 1,3
Mi, 28.09. 14:30 998 + 1,5
Ortszeit Schneehöhe (cm)
Mi, 28.09. 14:00 0
Mi, 28.09. 8:00 0
Mi, 28.09. 2:00 0
Di, 27.09. 20:00 0
Di, 27.09. 14:00 0
Di, 27.09. 8:00 0
Di, 27.09. 2:00 0
Mo, 26.09. 20:00 0
Ortszeit Schneehöhe (cm)
Mi, 28.09. 17:30 0
Mi, 28.09. 17:20 0
Mi, 28.09. 17:10 0
Mi, 28.09. 17:00 0
Mi, 28.09. 16:50 0
Mi, 28.09. 16:40 0
Mi, 28.09. 16:30 0
Mi, 28.09. 16:00 0
Mi, 28.09. 15:30 0
Mi, 28.09. 15:00 0
Mi, 28.09. 14:30 0
Link zu dieser Seite / Seite empfehlen

Das Wetter in ...